Time;durP1;ratioP1;P1;durP2;ratioP2;P2;SDS_P1;SDS_P2;PMS_P1;PMS_P2;Temp;Humidity;BMP_temperature;BMP_pressure;BME280_temperature;BME280_humidity;BME280_pressure;Samples;Min_cycle;Max_cycle;Signal;HPM_P1;HPM_P2
2022/09/28 00:01:43;;;;;;;1.97;1.70;;;10.70;99.00;;;;;;5094411;28;20521;-69
2022/09/28 00:04:11;;;;;;;2.30;1.60;;;10.60;99.10;;;;;;5094372;28;20458;-68
2022/09/28 00:06:38;;;;;;;2.20;1.63;;;10.60;99.30;;;;;;5094154;28;20840;-68
2022/09/28 00:09:06;;;;;;;2.00;1.70;;;10.70;99.40;;;;;;5094418;28;20453;-68
2022/09/28 00:11:33;;;;;;;5.90;1.67;;;10.70;99.30;;;;;;5094173;28;20457;-68
2022/09/28 00:14:02;;;;;;;1.60;1.50;;;10.70;99.40;;;;;;5094041;28;20444;-68
2022/09/28 00:16:31;;;;;;;1.77;1.67;;;10.70;99.40;;;;;;5093904;28;20529;-68
2022/09/28 00:18:58;;;;;;;2.80;2.10;;;10.70;99.40;;;;;;5094091;28;20448;-68
2022/09/28 00:21:27;;;;;;;3.07;1.93;;;10.70;99.40;;;;;;5093635;28;20994;-68
2022/09/28 00:24:13;;;;;;;2.20;1.87;;;10.70;99.40;;;;;;5093904;28;20455;-69
2022/09/28 00:26:44;;;;;;;2.20;2.10;;;10.70;99.80;;;;;;5093685;28;20564;-68
2022/09/28 00:29:30;;;;;;;3.10;2.80;;;10.70;99.30;;;;;;5093545;28;20921;-68
2022/09/28 00:32:01;;;;;;;4.13;2.53;;;10.70;99.30;;;;;;5094053;28;20521;-68
2022/09/28 00:34:30;;;;;;;2.70;2.50;;;10.70;99.50;;;;;;5093758;28;20469;-68
2022/09/28 00:36:57;;;;;;;2.47;2.27;;;10.70;99.60;;;;;;5093798;28;20815;-69
2022/09/28 00:39:24;;;;;;;3.67;2.70;;;10.70;99.50;;;;;;5093302;28;20817;-69
2022/09/28 00:41:52;;;;;;;3.50;3.20;;;10.70;99.60;;;;;;5093384;28;21006;-69
2022/09/28 00:44:39;;;;;;;3.13;2.93;;;10.70;99.50;;;;;;5093439;28;20952;-69
2022/09/28 00:47:38;;;;;;;4.40;3.57;;;10.70;99.50;;;;;;5093642;28;20440;-69
2022/09/28 00:50:10;;;;;;;3.57;3.27;;;10.70;99.40;;;;;;5059563;28;20819;-69
2022/09/28 00:52:42;;;;;;;3.40;3.20;;;10.70;99.50;;;;;;5093694;28;20430;-69
2022/09/28 00:55:13;;;;;;;4.40;3.57;;;10.70;99.50;;;;;;5093483;28;20481;-69
2022/09/28 00:57:46;;;;;;;11.27;4.63;;;10.70;99.60;;;;;;5093205;28;20915;-70
2022/09/28 01:00:14;;;;;;;4.80;3.70;;;10.70;99.60;;;;;;5093504;28;20487;-69
2022/09/28 01:02:41;;;;;;;4.33;3.33;;;10.70;99.60;;;;;;5095224;28;20546;-69
2022/09/28 01:05:09;;;;;;;4.83;3.63;;;10.70;99.60;;;;;;5097788;28;20468;-68
2022/09/28 01:07:37;;;;;;;3.90;3.60;;;10.70;99.70;;;;;;5097677;28;20452;-68
2022/09/28 01:10:04;;;;;;;3.30;3.10;;;10.60;99.60;;;;;;5097720;28;20453;-68
2022/09/28 01:12:31;;;;;;;5.00;3.57;;;10.60;99.80;;;;;;5097445;28;20483;-68
2022/09/28 01:15:00;;;;;;;3.33;3.10;;;10.60;99.80;;;;;;5097345;28;20476;-68
2022/09/28 01:17:35;;;;;;;3.30;2.93;;;10.60;99.80;;;;;;5097365;28;20485;-69
2022/09/28 01:20:26;;;;;;;5.70;2.77;;;10.60;99.80;;;;;;5097298;28;20449;-69
2022/09/28 01:23:26;;;;;;;3.30;2.97;;;10.60;99.80;;;;;;5097594;28;20800;-69
2022/09/28 01:25:55;;;;;;;5.07;2.37;;;10.60;99.80;;;;;;5071779;28;20469;-68
2022/09/28 01:28:27;;;;;;;6.27;3.00;;;10.60;99.70;;;;;;5097405;28;20449;-69
2022/09/28 01:31:03;;;;;;;6.13;3.33;;;10.60;99.70;;;;;;5097155;28;20426;-69
2022/09/28 01:33:36;;;;;;;3.00;2.53;;;10.60;99.70;;;;;;5096835;28;20911;-69
2022/09/28 01:36:11;;;;;;;3.63;3.00;;;10.60;99.80;;;;;;5096992;28;20460;-68
2022/09/28 01:38:43;;;;;;;5.23;3.10;;;10.60;99.80;;;;;;5096814;28;20452;-69
2022/09/28 01:41:10;;;;;;;4.37;2.57;;;10.60;99.70;;;;;;5096867;28;20490;-69
2022/09/28 01:43:42;;;;;;;4.70;2.87;;;10.70;99.60;;;;;;5096891;28;20465;-69
2022/09/28 01:46:13;;;;;;;4.57;3.40;;;10.70;99.60;;;;;;5096913;28;20479;-69
2022/09/28 01:48:45;;;;;;;3.43;3.13;;;10.70;99.70;;;;;;5096781;28;20424;-68
2022/09/28 01:51:19;;;;;;;2.93;2.70;;;10.70;99.70;;;;;;5096889;28;20429;-69
2022/09/28 01:53:49;;;;;;;5.93;3.10;;;10.70;99.70;;;;;;5096454;28;20905;-69
2022/09/28 01:56:22;;;;;;;5.10;3.80;;;10.70;99.60;;;;;;5097232;28;20472;-68
2022/09/28 01:58:55;;;;;;;5.90;4.43;;;10.60;99.40;;;;;;5096980;28;20430;-69
2022/09/28 02:01:27;;;;;;;4.40;3.80;;;10.60;99.60;;;;;;5097252;28;20480;-69
2022/09/28 02:04:01;;;;;;;4.23;3.83;;;10.60;99.70;;;;;;5096763;28;20435;-69
2022/09/28 02:06:33;;;;;;;4.17;3.83;;;10.60;99.50;;;;;;5096870;28;20464;-69
2022/09/28 02:09:05;;;;;;;4.10;3.73;;;10.60;99.60;;;;;;5097332;28;20440;-68
2022/09/28 02:11:36;;;;;;;4.00;3.70;;;10.50;99.70;;;;;;5097105;28;20429;-70
2022/09/28 02:14:07;;;;;;;5.17;4.37;;;10.50;99.80;;;;;;5096453;28;20464;-69
2022/09/28 02:16:39;;;;;;;5.53;4.00;;;10.60;99.80;;;;;;5097137;28;20488;-68
2022/09/28 02:19:09;;;;;;;4.50;4.10;;;10.60;99.90;;;;;;5097098;28;20461;-69
2022/09/28 02:21:42;;;;;;;4.50;4.20;;;10.50;99.90;;;;;;5096533;28;21036;-69
2022/09/28 02:24:18;;;;;;;6.30;5.70;;;10.50;99.90;;;;;;5095838;28;20456;-68
2022/09/28 02:26:46;;;;;;;7.30;6.10;;;10.50;99.90;;;;;;5096347;28;20468;-69
2022/09/28 02:29:14;;;;;;;5.90;5.40;;;10.50;99.90;;;;;;5096035;28;20449;-69
2022/09/28 02:31:41;;;;;;;5.90;5.30;;;10.60;99.90;;;;;;5114469;28;20877;-69
2022/09/28 02:34:09;;;;;;;6.90;6.20;;;10.60;99.90;;;;;;5116873;28;20453;-69
2022/09/28 02:36:36;;;;;;;7.30;6.07;;;10.60;99.90;;;;;;5117050;28;20468;-68
2022/09/28 02:39:03;;;;;;;6.73;5.93;;;10.60;99.90;;;;;;5116750;28;20463;-69
2022/09/28 02:41:42;;;;;;;7.37;6.67;;;10.60;99.90;;;;;;5115800;27;20863;-68
2022/09/28 02:44:29;;;;;;;8.40;7.27;;;10.60;99.90;;;;;;5116155;27;20861;-69
2022/09/28 02:47:00;;;;;;;10.23;7.47;;;10.60;99.90;;;;;;5116162;28;20447;-69
2022/09/28 02:49:34;;;;;;;8.53;7.60;;;10.60;99.90;;;;;;5116126;28;20431;-69
2022/09/28 02:52:25;;;;;;;9.20;7.87;;;10.50;99.90;;;;;;5115939;28;20540;-69
2022/09/28 02:55:13;;;;;;;9.40;8.40;;;10.50;99.90;;;;;;5115817;28;20483;-69
2022/09/28 02:57:54;;;;;;;9.27;8.27;;;10.50;99.90;;;;;;5116527;28;20455;-68
2022/09/28 03:00:24;;;;;;;9.87;8.00;;;10.60;99.90;;;;;;5115794;28;20448;-69
2022/09/28 03:03:01;;;;;;;10.17;9.17;;;10.60;99.90;;;;;;5115562;28;20483;-68
2022/09/28 03:05:35;;;;;;;9.50;8.70;;;10.60;99.90;;;;;;5115655;28;20480;-68
2022/09/28 03:08:06;;;;;;;11.37;9.37;;;10.50;99.90;;;;;;5115308;28;20444;-68
2022/09/28 03:10:38;;;;;;;12.00;9.40;;;10.50;99.90;;;;;;5115801;28;20436;-69
2022/09/28 03:13:06;;;;;;;12.83;10.63;;;10.50;99.90;;;;;;5115549;28;20459;-69
2022/09/28 03:15:38;;;;;;;14.97;10.40;;;10.50;99.90;;;;;;5115357;28;20468;-68
2022/09/28 03:18:04;;;;;;;11.43;10.43;;;10.50;99.90;;;;;;5115162;28;20907;-68
2022/09/28 03:20:33;;;;;;;11.30;10.20;;;10.50;99.90;;;;;;5115567;27;20456;-69
2022/09/28 03:23:00;;;;;;;15.30;11.47;;;10.50;99.90;;;;;;5114895;27;21069;-69
2022/09/28 03:25:27;;;;;;;15.40;11.40;;;10.40;99.90;;;;;;5115144;28;20467;-69
2022/09/28 03:27:54;;;;;;;13.87;12.50;;;10.40;99.90;;;;;;5114872;28;20455;-69
2022/09/28 03:30:21;;;;;;;14.87;12.17;;;10.40;99.90;;;;;;5115262;28;20452;-69
2022/09/28 03:32:57;;;;;;;14.07;11.77;;;10.40;99.90;;;;;;5115133;27;20455;-69
2022/09/28 03:35:23;;;;;;;14.90;12.13;;;10.40;99.90;;;;;;5114670;28;21030;-69
2022/09/28 03:37:53;;;;;;;17.17;13.33;;;10.40;99.90;;;;;;5114740;28;20829;-68
2022/09/28 03:40:20;;;;;;;16.30;14.67;;;10.40;99.90;;;;;;5115057;28;20534;-69
2022/09/28 03:42:47;;;;;;;16.20;13.93;;;10.40;99.90;;;;;;5114956;28;20480;-69
2022/09/28 03:45:13;;;;;;;18.43;14.90;;;10.40;99.90;;;;;;5115053;28;20471;-68
2022/09/28 03:47:45;;;;;;;16.57;14.97;;;10.40;99.90;;;;;;5114961;28;20486;-69
2022/09/28 03:50:13;;;;;;;16.50;14.00;;;10.40;99.90;;;;;;5115542;28;20446;-69
2022/09/28 03:52:40;;;;;;;15.67;14.13;;;10.40;99.90;;;;;;5115343;28;20864;-69
2022/09/28 03:55:07;;;;;;;15.43;13.93;;;10.40;99.90;;;;;;5115096;28;20478;-68
2022/09/28 03:57:34;;;;;;;16.30;14.60;;;10.30;99.90;;;;;;5115066;28;20443;-69
2022/09/28 04:00:02;;;;;;;14.50;13.10;;;10.30;99.90;;;;;;5115072;28;20452;-69
2022/09/28 04:02:29;;;;;;;15.60;12.80;;;10.30;99.90;;;;;;5114853;28;20483;-69
2022/09/28 04:04:56;;;;;;;16.50;14.03;;;10.30;99.90;;;;;;5114749;28;20532;-69
2022/09/28 04:07:24;;;;;;;14.63;12.57;;;10.30;99.90;;;;;;5114481;28;20510;-68
2022/09/28 04:09:50;;;;;;;13.70;12.43;;;10.30;99.90;;;;;;5114429;28;20955;-69
2022/09/28 04:12:17;;;;;;;14.30;12.90;;;10.30;99.90;;;;;;5114324;28;20453;-69
2022/09/28 04:14:44;;;;;;;14.97;12.80;;;10.30;99.90;;;;;;5114583;28;20443;-69
2022/09/28 04:17:11;;;;;;;14.90;13.43;;;10.30;99.90;;;;;;5114596;28;20811;-68
2022/09/28 04:19:38;;;;;;;13.50;12.13;;;10.30;99.90;;;;;;5114033;28;21021;-69
2022/09/28 04:22:04;;;;;;;13.03;11.83;;;10.30;99.90;;;;;;5114442;28;20578;-69
2022/09/28 04:24:33;;;;;;;12.93;11.63;;;10.30;99.90;;;;;;5114435;28;20440;-68
2022/09/28 04:29:42;;;;;;;12.57;11.27;;;10.30;99.90;;;;;;5113826;28;20436;-69
2022/09/28 04:32:10;;;;;;;11.93;10.93;;;10.30;99.90;;;;;;5113976;28;20967;-69
2022/09/28 04:34:36;;;;;;;14.17;10.93;;;10.20;99.90;;;;;;5113835;28;20921;-68
2022/09/28 04:37:03;;;;;;;14.83;11.40;;;10.20;99.90;;;;;;5113832;28;20517;-69
2022/09/28 04:39:30;;;;;;;12.53;11.07;;;10.20;99.90;;;;;;5114057;28;20478;-69
2022/09/28 04:41:58;;;;;;;13.27;11.90;;;10.20;99.90;;;;;;5114046;28;20488;-69
2022/09/28 04:44:25;;;;;;;14.17;10.47;;;10.20;99.90;;;;;;5115320;28;20493;-69
2022/09/28 04:46:52;;;;;;;11.57;9.43;;;10.20;99.90;;;;;;5114478;28;20819;-68
2022/09/28 04:49:18;;;;;;;10.70;9.67;;;10.20;99.90;;;;;;5114892;28;20451;-69
2022/09/28 04:51:45;;;;;;;10.20;9.23;;;10.20;99.90;;;;;;5114531;28;20941;-69
2022/09/28 04:54:12;;;;;;;11.67;9.50;;;10.20;99.90;;;;;;5114773;28;20431;-69
2022/09/28 04:56:38;;;;;;;11.83;9.37;;;10.20;99.90;;;;;;5115158;28;20473;-69
2022/09/28 04:59:07;;;;;;;11.10;9.60;;;10.20;99.90;;;;;;5115826;28;20448;-69
2022/09/28 05:01:33;;;;;;;10.87;9.87;;;10.10;99.90;;;;;;5116393;28;20502;-69
2022/09/28 05:04:00;;;;;;;10.10;8.50;;;10.10;99.90;;;;;;5117851;28;20826;-69
2022/09/28 05:06:29;;;;;;;8.70;7.90;;;10.10;99.90;;;;;;5117249;28;20479;-68
2022/09/28 05:08:56;;;;;;;8.90;7.93;;;10.10;99.90;;;;;;5097060;28;20479;-69
2022/09/28 05:11:24;;;;;;;11.20;8.70;;;10.10;99.90;;;;;;5093527;28;20497;-68
2022/09/28 05:13:50;;;;;;;11.30;8.50;;;10.10;99.90;;;;;;5093310;28;20455;-69
2022/09/28 05:16:19;;;;;;;9.80;8.40;;;10.10;99.90;;;;;;5093386;28;20468;-68
2022/09/28 05:18:46;;;;;;;8.67;7.87;;;10.00;99.90;;;;;;5093448;28;20443;-68
2022/09/28 05:21:14;;;;;;;8.20;7.40;;;10.00;99.90;;;;;;5093319;28;20440;-68
2022/09/28 05:23:45;;;;;;;10.53;8.37;;;10.00;99.90;;;;;;5093550;28;20444;-68
2022/09/28 05:26:12;;;;;;;8.37;7.30;;;10.10;99.90;;;;;;5092953;28;20858;-68
2022/09/28 05:28:39;;;;;;;10.73;7.70;;;10.10;99.90;;;;;;5093362;28;20449;-67
2022/09/28 05:31:06;;;;;;;8.17;7.13;;;10.00;99.90;;;;;;5092816;28;20460;-68
2022/09/28 05:33:35;;;;;;;7.50;6.70;;;10.10;99.90;;;;;;5093153;28;20448;-66
2022/09/28 05:36:02;;;;;;;8.47;7.57;;;10.10;99.90;;;;;;5093019;28;20471;-66
2022/09/28 05:38:29;;;;;;;9.60;7.03;;;10.10;99.90;;;;;;5092895;28;20467;-66
2022/09/28 05:40:56;;;;;;;8.50;7.30;;;10.10;99.90;;;;;;5093264;28;20424;-67
2022/09/28 05:43:23;;;;;;;9.63;6.93;;;10.10;99.90;;;;;;5093077;28;20559;-67
2022/09/28 05:45:50;;;;;;;7.80;6.30;;;10.10;99.90;;;;;;5092999;28;20472;-67
2022/09/28 05:48:17;;;;;;;8.57;7.07;;;10.10;99.90;;;;;;5093238;28;20445;-66
2022/09/28 05:50:49;;;;;;;8.30;7.60;;;10.10;99.90;;;;;;5096149;28;20445;-66
2022/09/28 05:53:16;;;;;;;10.30;7.67;;;10.10;99.90;;;;;;5097188;28;20425;-66
2022/09/28 05:55:43;;;;;;;9.27;8.40;;;10.10;99.90;;;;;;5096597;28;20477;-67
2022/09/28 05:58:10;;;;;;;8.17;7.37;;;10.10;99.90;;;;;;5096745;28;20447;-67
2022/09/28 06:00:36;;;;;;;10.23;8.13;;;10.10;99.90;;;;;;5096575;28;20506;-67
2022/09/28 06:03:05;;;;;;;8.43;7.43;;;10.10;99.90;;;;;;5096473;28;20488;-67
2022/09/28 06:05:34;;;;;;;9.73;7.90;;;10.00;99.90;;;;;;5096435;28;20475;-67
2022/09/28 06:08:04;;;;;;;9.90;8.90;;;10.00;99.90;;;;;;5096319;28;20505;-67
2022/09/28 06:10:31;;;;;;;8.77;7.27;;;10.00;99.90;;;;;;5096553;28;20447;-67
2022/09/28 06:13:01;;;;;;;9.60;8.60;;;10.00;99.90;;;;;;5096611;28;20441;-67
2022/09/28 06:15:29;;;;;;;9.80;8.30;;;10.00;99.90;;;;;;5096012;28;20842;-67
2022/09/28 06:17:57;;;;;;;11.10;7.57;;;10.10;99.90;;;;;;5096303;28;20447;-67
2022/09/28 06:20:24;;;;;;;10.07;7.30;;;10.10;99.90;;;;;;5096852;28;20443;-67
2022/09/28 06:22:52;;;;;;;8.40;7.20;;;10.10;99.90;;;;;;5096294;28;20491;-67
2022/09/28 06:25:21;;;;;;;8.67;6.70;;;10.10;99.90;;;;;;5096335;28;20525;-67
2022/09/28 06:27:58;;;;;;;8.53;7.63;;;10.10;99.90;;;;;;5095972;28;20543;-65
2022/09/28 06:30:26;;;;;;;9.27;7.30;;;10.10;99.90;;;;;;5095758;28;20782;-65
2022/09/28 06:32:55;;;;;;;8.27;7.27;;;10.10;99.90;;;;;;5096024;28;20468;-65
2022/09/28 06:35:22;;;;;;;14.53;8.23;;;10.20;99.90;;;;;;5095807;28;20468;-65
2022/09/28 06:37:49;;;;;;;7.70;7.00;;;10.20;99.90;;;;;;5095732;28;20455;-65
2022/09/28 06:40:16;;;;;;;10.27;7.07;;;10.20;99.90;;;;;;5095637;28;20467;-65
2022/09/28 06:42:44;;;;;;;7.80;6.80;;;10.20;99.90;;;;;;5095801;28;20485;-65
2022/09/28 06:45:11;;;;;;;10.50;7.20;;;10.20;99.90;;;;;;5095766;28;20471;-65
2022/09/28 06:47:38;;;;;;;11.37;7.10;;;10.30;99.90;;;;;;5096123;28;20460;-65
2022/09/28 06:50:11;;;;;;;9.60;6.67;;;10.30;99.90;;;;;;5095466;28;20445;-65
2022/09/28 06:52:38;;;;;;;7.10;6.30;;;10.30;99.90;;;;;;5095648;28;20445;-64
2022/09/28 06:55:05;;;;;;;9.67;6.73;;;10.20;99.90;;;;;;5095587;28;20473;-65
2022/09/28 06:57:32;;;;;;;7.87;6.63;;;10.30;99.90;;;;;;5095472;28;20450;-65
2022/09/28 07:00:00;;;;;;;10.60;7.27;;;10.40;99.90;;;;;;5095198;28;20440;-65
2022/09/28 07:02:27;;;;;;;7.37;6.63;;;10.40;99.90;;;;;;5095272;28;20484;-65
2022/09/28 07:04:54;;;;;;;8.70;6.27;;;10.50;99.90;;;;;;5095230;28;20472;-65
2022/09/28 07:07:20;;;;;;;13.23;5.90;;;10.50;99.90;;;;;;5095180;28;20450;-65
2022/09/28 07:09:47;;;;;;;6.50;5.90;;;10.60;99.90;;;;;;5095370;28;20441;-65
2022/09/28 07:12:14;;;;;;;7.50;6.20;;;10.60;99.90;;;;;;5094954;28;20445;-65
2022/09/28 07:14:40;;;;;;;6.73;5.23;;;10.70;99.90;;;;;;5094812;28;20823;-66
2022/09/28 07:17:09;;;;;;;7.77;5.40;;;10.80;99.90;;;;;;5095166;28;20532;-65
2022/09/28 07:19:36;;;;;;;7.70;5.50;;;10.80;99.90;;;;;;5095217;28;20464;-65
2022/09/28 07:22:02;;;;;;;7.53;5.60;;;10.80;99.90;;;;;;5095018;28;20475;-65
2022/09/28 07:24:29;;;;;;;7.60;5.77;;;10.90;99.90;;;;;;5094935;28;20451;-65
2022/09/28 07:26:56;;;;;;;6.90;5.63;;;10.90;99.40;;;;;;5094520;28;20454;-65
2022/09/28 07:29:23;;;;;;;7.10;6.17;;;11.00;99.50;;;;;;5094998;28;20465;-68
2022/09/28 07:31:52;;;;;;;8.47;5.17;;;11.00;99.70;;;;;;5094806;28;20445;-68
2022/09/28 07:34:21;;;;;;;6.47;5.80;;;11.10;99.40;;;;;;5095473;28;20499;-65
2022/09/28 07:36:48;;;;;;;5.87;5.37;;;11.20;98.90;;;;;;5096210;28;20491;-65
2022/09/28 07:39:15;;;;;;;6.53;4.83;;;11.20;98.70;;;;;;5095040;28;20464;-65
2022/09/28 07:41:41;;;;;;;5.90;5.30;;;11.30;99.00;;;;;;5094986;28;20454;-65
2022/09/28 07:44:08;;;;;;;5.37;4.97;;;11.40;98.80;;;;;;5094729;28;20515;-65
2022/09/28 07:46:35;;;;;;;7.37;5.67;;;11.50;98.40;;;;;;5094605;28;20474;-66
2022/09/28 07:49:04;;;;;;;6.30;5.50;;;11.50;97.50;;;;;;5094992;28;20451;-65
2022/09/28 07:51:32;;;;;;;6.87;6.23;;;11.50;97.70;;;;;;5094834;28;20455;-65
2022/09/28 07:53:59;;;;;;;6.50;5.90;;;11.60;97.30;;;;;;5094383;28;20806;-65
2022/09/28 07:56:26;;;;;;;6.17;5.67;;;11.60;97.80;;;;;;5094394;28;20476;-65
2022/09/28 07:58:53;;;;;;;10.30;6.97;;;11.70;98.00;;;;;;5094392;28;20945;-65
2022/09/28 08:01:20;;;;;;;7.30;5.90;;;11.80;98.10;;;;;;5094787;28;20457;-65
2022/09/28 08:03:47;;;;;;;6.70;5.40;;;12.00;98.00;;;;;;5094066;28;20924;-65
2022/09/28 08:06:15;;;;;;;6.87;4.43;;;12.00;97.60;;;;;;5093938;28;20558;-66
2022/09/28 08:08:44;;;;;;;6.00;4.87;;;12.10;96.80;;;;;;5094347;28;20466;-65
2022/09/28 08:11:12;;;;;;;6.27;4.63;;;12.10;96.50;;;;;;5093600;28;20460;-65
2022/09/28 08:13:38;;;;;;;4.70;4.30;;;12.20;96.60;;;;;;5093700;28;20456;-65
2022/09/28 08:16:07;;;;;;;6.70;4.50;;;12.20;96.10;;;;;;5093987;28;20475;-65
2022/09/28 08:18:34;;;;;;;4.30;3.47;;;12.30;96.10;;;;;;5093563;28;21002;-65
2022/09/28 08:23:47;;;;;;;5.70;3.67;;;12.30;96.10;;;;;;5093604;28;20458;-65
2022/09/28 08:26:14;;;;;;;4.93;3.90;;;12.50;95.90;;;;;;5093727;28;20475;-65
2022/09/28 08:28:42;;;;;;;5.00;3.87;;;12.40;94.50;;;;;;5093436;28;20965;-65
2022/09/28 08:31:09;;;;;;;4.03;3.63;;;12.50;95.00;;;;;;5093526;28;20505;-65
2022/09/28 08:33:36;;;;;;;6.07;3.50;;;12.60;95.30;;;;;;5093732;28;20454;-65
2022/09/28 08:36:04;;;;;;;5.50;3.87;;;12.70;95.10;;;;;;5093711;28;20465;-65
2022/09/28 08:38:32;;;;;;;3.40;3.10;;;12.80;95.00;;;;;;5093788;28;20862;-65
2022/09/28 08:41:19;;;;;;;3.60;3.00;;;12.90;94.40;;;;;;5093738;28;20432;-65
2022/09/28 08:44:12;;;;;;;4.20;2.90;;;12.90;93.60;;;;;;5093692;28;20555;-65
2022/09/28 08:46:42;;;;;;;3.60;2.70;;;13.00;93.90;;;;;;5089929;28;20483;-65
2022/09/28 08:49:12;;;;;;;4.23;2.50;;;13.10;93.10;;;;;;5093629;28;20422;-65
2022/09/28 08:51:45;;;;;;;3.17;2.50;;;13.00;92.70;;;;;;5093934;28;20426;-65
2022/09/28 08:54:24;;;;;;;3.43;2.70;;;13.00;92.40;;;;;;5093226;28;20802;-66
2022/09/28 08:56:56;;;;;;;2.70;2.47;;;13.10;92.40;;;;;;5093202;28;21003;-65
2022/09/28 08:59:26;;;;;;;2.97;2.70;;;13.10;92.30;;;;;;5093319;28;20908;-66
2022/09/28 09:01:58;;;;;;;4.57;2.90;;;13.30;92.80;;;;;;5093534;28;20941;-65
2022/09/28 09:04:25;;;;;;;3.40;2.57;;;13.50;92.50;;;;;;5093371;28;20471;-65
2022/09/28 09:07:13;;;;;;;3.90;2.90;;;13.50;91.80;;;;;;5093430;28;20462;-65
2022/09/28 09:09:52;;;;;;;6.00;3.20;;;13.50;91.40;;;;;;5093556;28;20444;-65
2022/09/28 09:12:30;;;;;;;3.27;2.97;;;13.50;91.60;;;;;;5093440;28;20444;-65
2022/09/28 09:15:07;;;;;;;4.90;3.20;;;13.60;91.50;;;;;;5093360;28;20478;-65
2022/09/28 09:17:46;;;;;;;5.57;3.27;;;13.60;91.00;;;;;;5094180;28;20438;-65
2022/09/28 09:20:19;;;;;;;7.33;3.57;;;13.50;91.30;;;;;;5093619;28;20435;-65
2022/09/28 09:22:57;;;;;;;5.30;3.10;;;13.30;91.20;;;;;;5093516;28;20510;-65
2022/09/28 09:25:28;;;;;;;3.77;3.00;;;13.30;91.90;;;;;;5097157;28;20471;-66
2022/09/28 09:28:25;;;;;;;2.87;2.67;;;13.30;92.50;;;;;;5097336;28;20439;-65
2022/09/28 09:31:01;;;;;;;3.07;2.70;;;13.40;92.40;;;;;;5097322;28;20439;-65
2022/09/28 09:33:54;;;;;;;2.60;2.33;;;13.60;91.90;;;;;;5097274;28;20433;-66
2022/09/28 09:36:42;;;;;;;2.43;2.10;;;13.80;91.00;;;;;;5097106;28;20474;-65
2022/09/28 09:39:23;;;;;;;4.73;2.60;;;14.10;91.50;;;;;;5097178;28;20458;-66
2022/09/28 09:42:14;;;;;;;4.83;2.40;;;14.10;88.10;;;;;;5097125;28;20439;-66
2022/09/28 09:45:04;;;;;;;3.80;2.50;;;14.20;88.90;;;;;;5093860;28;20489;-66
2022/09/28 09:47:35;;;;;;;4.33;2.70;;;14.60;89.90;;;;;;5117783;28;20466;-66
2022/09/28 09:50:11;;;;;;;3.50;2.57;;;15.10;87.60;;;;;;5118424;28;20446;-65
2022/09/28 09:52:47;;;;;;;2.17;1.97;;;15.40;84.90;;;;;;5110829;28;20558;-65
2022/09/28 09:55:18;;;;;;;3.43;2.23;;;15.70;83.40;;;;;;5098009;28;20490;-66
2022/09/28 09:57:51;;;;;;;2.80;2.23;;;16.00;83.70;;;;;;5098396;28;20427;-66
2022/09/28 10:00:20;;;;;;;3.23;2.93;;;16.00;78.80;;;;;;5099706;28;20903;-66
2022/09/28 10:02:48;;;;;;;2.77;1.90;;;15.90;79.30;;;;;;5113812;28;20446;-66
2022/09/28 10:05:20;;;;;;;3.53;2.43;;;15.80;78.90;;;;;;5112956;28;20981;-66
2022/09/28 10:07:52;;;;;;;2.27;2.10;;;15.80;79.70;;;;;;5096914;28;20432;-66
2022/09/28 10:10:23;;;;;;;5.00;2.30;;;15.70;79.30;;;;;;5096935;28;20438;-66
2022/09/28 10:12:51;;;;;;;4.20;2.43;;;15.70;79.70;;;;;;5096573;28;20431;-66
2022/09/28 10:15:23;;;;;;;4.23;2.10;;;15.70;79.50;;;;;;5095974;28;20992;-66
2022/09/28 10:17:50;;;;;;;3.60;2.37;;;15.70;79.70;;;;;;5096361;28;20440;-66
2022/09/28 10:20:18;;;;;;;1.97;1.83;;;15.80;79.00;;;;;;5096193;28;20964;-66
2022/09/28 10:22:46;;;;;;;2.87;1.80;;;16.10;80.00;;;;;;5096033;28;20452;-65
2022/09/28 10:25:13;;;;;;;2.83;1.80;;;16.40;77.80;;;;;;5096210;28;20479;-66
2022/09/28 10:27:44;;;;;;;3.70;1.97;;;16.80;77.10;;;;;;5095957;28;20457;-67
2022/09/28 10:30:18;;;;;;;7.97;2.07;;;17.10;73.40;;;;;;5095749;28;21464;-66
2022/09/28 10:32:48;;;;;;;3.17;1.90;;;17.50;71.50;;;;;;5096100;28;20455;-66
2022/09/28 10:35:22;;;;;;;1.63;1.23;;;17.50;70.80;;;;;;5103618;28;20514;-66
2022/09/28 10:37:53;;;;;;;3.73;1.50;;;17.40;70.50;;;;;;5116360;28;20431;-66
2022/09/28 10:40:38;;;;;;;1.73;1.63;;;17.10;69.30;;;;;;5116028;28;20451;-66
2022/09/28 10:43:07;;;;;;;4.00;2.07;;;16.70;72.50;;;;;;5115788;27;20940;-66
2022/09/28 10:45:36;;;;;;;2.80;1.30;;;16.50;73.60;;;;;;5116059;28;20481;-66
2022/09/28 10:48:16;;;;;;;2.17;1.53;;;16.20;73.40;;;;;;5116195;28;20458;-66
2022/09/28 10:50:43;;;;;;;2.57;1.20;;;16.10;73.70;;;;;;5116284;28;20426;-66
2022/09/28 10:53:12;;;;;;;1.70;1.40;;;16.00;74.80;;;;;;5116268;28;20451;-66
2022/09/28 10:55:39;;;;;;;1.90;1.10;;;15.80;75.70;;;;;;5115914;28;20841;-66
2022/09/28 10:58:25;;;;;;;4.50;1.17;;;15.80;76.20;;;;;;5116048;28;20458;-66
2022/09/28 11:00:53;;;;;;;4.53;2.03;;;15.80;77.50;;;;;;5116502;28;20470;-66
2022/09/28 11:03:24;;;;;;;2.53;1.60;;;15.60;76.60;;;;;;5116347;28;20483;-66
2022/09/28 11:05:56;;;;;;;1.60;1.17;;;15.60;77.00;;;;;;5116007;28;20474;-66
2022/09/28 11:08:26;;;;;;;2.60;1.17;;;15.80;76.80;;;;;;5115612;28;20454;-66
2022/09/28 11:11:02;;;;;;;1.63;1.17;;;15.70;77.60;;;;;;5115998;28;20434;-66
2022/09/28 11:13:29;;;;;;;1.60;1.50;;;15.70;75.90;;;;;;5115345;28;20941;-66
2022/09/28 11:15:56;;;;;;;4.93;1.80;;;15.70;77.60;;;;;;5115531;28;20474;-66
2022/09/28 11:18:31;;;;;;;1.20;1.20;;;15.70;77.20;;;;;;5115671;28;20446;-66
2022/09/28 11:21:08;;;;;;;1.83;1.70;;;15.60;78.00;;;;;;5115563;28;20469;-65
2022/09/28 11:23:35;;;;;;;3.20;1.30;;;15.50;79.00;;;;;;5115317;28;20493;-65
2022/09/28 11:26:05;;;;;;;2.10;1.23;;;15.40;80.20;;;;;;5115246;28;20471;-66
2022/09/28 11:28:33;;;;;;;2.80;1.00;;;15.40;79.70;;;;;;5115328;27;20451;-65
2022/09/28 11:31:01;;;;;;;2.93;1.47;;;15.40;78.90;;;;;;5100901;28;20468;-66
2022/09/28 11:33:33;;;;;;;1.70;1.10;;;15.80;78.10;;;;;;5095000;28;20453;-66
2022/09/28 11:36:15;;;;;;;2.47;1.37;;;16.20;75.30;;;;;;5094704;28;20471;-67
2022/09/28 11:38:52;;;;;;;1.30;1.17;;;16.30;75.10;;;;;;5094460;28;20941;-66
2022/09/28 11:41:47;;;;;;;2.10;1.10;;;16.30;74.60;;;;;;5094803;28;20455;-66
2022/09/28 11:44:38;;;;;;;2.70;0.80;;;16.50;75.00;;;;;;5095171;28;20479;-65
2022/09/28 11:47:23;;;;;;;1.83;0.80;;;17.20;71.70;;;;;;5093578;28;20520;-66
2022/09/28 11:49:57;;;;;;;4.93;0.90;;;17.30;69.00;;;;;;5094560;28;20444;-66
2022/09/28 11:52:28;;;;;;;2.57;0.83;;;17.20;68.00;;;;;;5094177;28;20902;-66
2022/09/28 11:54:58;;;;;;;1.97;1.20;;;17.10;69.70;;;;;;5094344;28;20492;-67
2022/09/28 11:57:28;;;;;;;2.43;1.90;;;16.90;69.30;;;;;;5094501;28;20445;-66
2022/09/28 12:00:00;;;;;;;1.80;0.80;;;16.80;69.90;;;;;;5094027;28;20977;-66
2022/09/28 12:02:31;;;;;;;2.83;0.87;;;16.60;71.30;;;;;;5094833;28;20444;-66
2022/09/28 12:05:11;;;;;;;2.73;0.80;;;16.50;71.70;;;;;;5093722;28;20540;-66
2022/09/28 12:07:43;;;;;;;1.80;1.20;;;16.40;71.70;;;;;;5094158;28;20429;-66
2022/09/28 12:10:18;;;;;;;2.40;0.83;;;16.30;72.10;;;;;;5094182;28;20435;-66
2022/09/28 12:12:50;;;;;;;1.27;0.90;;;16.00;71.10;;;;;;5094209;28;20436;-65
2022/09/28 12:15:21;;;;;;;2.80;1.07;;;15.80;72.50;;;;;;5094118;28;20510;-66
2022/09/28 12:17:50;;;;;;;3.00;1.00;;;15.70;73.90;;;;;;5094135;28;20498;-66
2022/09/28 12:20:24;;;;;;;3.43;0.90;;;15.60;74.20;;;;;;5095181;28;20459;-66
2022/09/28 12:23:01;;;;;;;2.40;1.00;;;15.40;74.90;;;;;;5094080;28;20440;-66
2022/09/28 12:25:34;;;;;;;1.70;0.80;;;15.30;78.40;;;;;;5094072;28;20895;-66
2022/09/28 12:28:05;;;;;;;2.27;1.13;;;15.10;82.00;;;;;;5094408;28;20435;-66
2022/09/28 12:30:39;;;;;;;1.63;0.83;;;15.00;80.60;;;;;;5094281;28;20914;-66
2022/09/28 12:33:11;;;;;;;1.73;0.70;;;14.80;83.10;;;;;;5094283;28;20535;-67
2022/09/28 12:35:53;;;;;;;2.10;1.17;;;14.80;84.80;;;;;;5093905;28;20468;-66
2022/09/28 12:38:34;;;;;;;2.40;0.90;;;14.80;87.00;;;;;;5093261;28;20435;-66
2022/09/28 12:41:09;;;;;;;2.20;1.30;;;14.80;88.80;;;;;;5093701;28;20461;-66
2022/09/28 12:44:20;;;;;;;1.00;0.73;;;14.90;89.30;;;;;;5093623;28;20442;-65
2022/09/28 12:46:59;;;;;;;3.47;0.80;;;14.80;90.00;;;;;;5093577;28;20490;-66
2022/09/28 12:49:48;;;;;;;3.17;1.10;;;14.80;90.40;;;;;;5093930;28;20446;-66
2022/09/28 12:52:28;;;;;;;3.10;1.30;;;14.80;90.90;;;;;;5093684;28;20435;-66
2022/09/28 12:55:12;;;;;;;1.57;0.80;;;14.70;91.10;;;;;;5093572;28;20498;-66
2022/09/28 12:57:48;;;;;;;2.00;1.10;;;14.80;91.60;;;;;;5093617;28;20435;-66
2022/09/28 13:00:21;;;;;;;1.77;0.70;;;14.90;92.00;;;;;;5097780;28;20431;-66
2022/09/28 13:03:30;;;;;;;3.40;0.93;;;15.10;92.50;;;;;;5097765;28;20534;-66
2022/09/28 13:06:25;;;;;;;3.03;1.00;;;15.30;92.50;;;;;;5095790;28;20474;-65
2022/09/28 13:09:12;;;;;;;1.00;0.90;;;15.60;91.60;;;;;;5088206;28;20824;-66
2022/09/28 13:11:48;;;;;;;4.57;1.50;;;16.00;91.20;;;;;;5097558;28;20439;-65